createdAt,value
2018-06-05T00:00:06.681Z,75.70
2018-06-05T00:02:34.565Z,75.01
2018-06-05T00:05:02.540Z,74.96
2018-06-05T00:07:30.471Z,73.86
2018-06-05T00:09:58.603Z,73.96
2018-06-05T00:12:26.525Z,73.05
2018-06-05T00:14:54.554Z,72.19
2018-06-05T00:17:22.553Z,72.80
2018-06-05T00:19:50.535Z,74.08
2018-06-05T00:22:18.512Z,75.23
2018-06-05T00:24:46.547Z,75.35
2018-06-05T00:27:14.437Z,74.53
2018-06-05T00:29:42.357Z,74.96
2018-06-05T00:32:10.327Z,74.76
2018-06-05T00:34:38.289Z,74.81
2018-06-05T00:37:07.140Z,73.95
2018-06-05T00:39:35.146Z,74.25
2018-06-05T00:42:03.019Z,74.34
2018-06-05T00:44:31.037Z,75.21
2018-06-05T00:46:59.041Z,76.91
2018-06-05T00:49:27.348Z,77.18
2018-06-05T00:52:09.226Z,76.34
2018-06-05T00:54:37.497Z,75.24
2018-06-05T00:57:05.590Z,75.00
2018-06-05T00:59:33.645Z,75.41
2018-06-05T01:02:01.692Z,74.61
2018-06-05T01:04:29.705Z,73.57
2018-06-05T01:06:57.608Z,73.23
2018-06-05T01:09:25.668Z,72.61
2018-06-05T01:11:54.266Z,71.91
2018-06-05T01:14:22.234Z,72.02
2018-06-05T01:16:50.221Z,72.92
2018-06-05T01:19:18.204Z,73.23
2018-06-05T01:21:46.116Z,73.70
2018-06-05T01:24:14.124Z,74.86
2018-06-05T01:26:42.190Z,76.30
2018-06-05T01:29:10.220Z,77.15
2018-06-05T01:31:38.352Z,77.69
2018-06-05T01:34:06.291Z,77.59
2018-06-05T01:36:34.210Z,77.55
2018-06-05T01:39:02.394Z,77.57
2018-06-05T01:41:30.366Z,76.60
2018-06-05T01:43:58.397Z,75.43
2018-06-05T01:46:26.418Z,75.38
2018-06-05T01:48:55.308Z,76.28
2018-06-05T01:51:23.374Z,75.66
2018-06-05T01:53:51.385Z,76.05
2018-06-05T01:56:19.419Z,75.79
2018-06-05T01:58:47.344Z,77.14
2018-06-05T02:01:15.305Z,77.99
2018-06-05T02:03:43.329Z,77.73
2018-06-05T02:06:11.345Z,76.79
2018-06-05T02:08:39.317Z,76.79
2018-06-05T02:11:07.291Z,77.86
2018-06-05T02:13:35.333Z,77.91
2018-06-05T02:16:03.329Z,78.08
2018-06-05T02:18:31.372Z,77.71
2018-06-05T02:20:59.422Z,77.18
2018-06-05T02:23:27.394Z,77.65
2018-06-05T02:25:55.422Z,77.15
2018-06-05T02:28:23.489Z,76.86
2018-06-05T02:30:51.468Z,77.06
2018-06-05T02:33:19.472Z,77.16
2018-06-05T02:35:47.512Z,76.06
2018-06-05T02:38:15.499Z,77.38
2018-06-05T02:40:43.420Z,77.34
2018-06-05T02:43:11.430Z,76.45
2018-06-05T02:45:39.463Z,77.19
2018-06-05T02:48:07.463Z,77.56
2018-06-05T02:50:35.448Z,78.29
2018-06-05T02:53:03.409Z,78.51
2018-06-05T02:55:31.357Z,77.83
2018-06-05T02:57:59.284Z,76.85
2018-06-05T03:00:27.344Z,76.82
2018-06-05T03:02:55.314Z,75.90
2018-06-05T03:05:23.381Z,74.88
2018-06-05T03:07:51.390Z,74.35
2018-06-05T03:10:19.487Z,73.88
2018-06-05T03:12:47.474Z,73.30
2018-06-05T03:15:15.392Z,73.23
2018-06-05T03:17:43.495Z,73.12
2018-06-05T03:20:11.510Z,75.19
2018-06-05T03:22:39.590Z,74.75
2018-06-05T03:25:07.648Z,74.82
2018-06-05T03:27:35.665Z,74.53
2018-06-05T03:30:04.206Z,74.95
2018-06-05T03:32:32.176Z,74.90
2018-06-05T03:35:00.155Z,75.06
2018-06-05T03:37:28.142Z,74.82
2018-06-05T03:39:56.276Z,75.49
2018-06-05T03:42:24.206Z,75.59
2018-06-05T03:44:52.229Z,74.47
2018-06-05T03:47:20.154Z,74.32
2018-06-05T03:49:48.193Z,74.30
2018-06-05T03:52:16.201Z,75.26
2018-06-05T03:54:44.133Z,74.31
2018-06-05T03:57:12.177Z,74.89
2018-06-05T03:59:40.133Z,75.27
2018-06-05T04:02:08.139Z,74.13
2018-06-05T04:04:36.617Z,73.19
2018-06-05T04:07:04.979Z,73.75
2018-06-05T04:09:33.369Z,74.06
2018-06-05T04:12:01.842Z,74.28
2018-06-05T04:14:29.910Z,73.77
2018-06-05T04:16:57.948Z,74.07
2018-06-05T04:19:25.897Z,75.15
2018-06-05T04:21:53.834Z,73.91
2018-06-05T04:24:21.828Z,73.32
2018-06-05T04:26:49.769Z,74.09
2018-06-05T04:29:17.720Z,73.50
2018-06-05T04:31:45.777Z,72.81
2018-06-05T04:34:13.866Z,72.55
2018-06-05T04:36:41.744Z,72.38
2018-06-05T04:39:09.875Z,72.45
2018-06-05T04:41:38.860Z,72.28
2018-06-05T04:44:06.846Z,72.85
2018-06-05T04:46:34.847Z,71.66
2018-06-05T04:49:02.877Z,70.52
2018-06-05T04:51:31.453Z,70.14
2018-06-05T04:53:59.357Z,72.01
2018-06-05T04:56:27.497Z,71.90
2018-06-05T04:58:55.512Z,71.69
2018-06-05T05:01:23.668Z,71.11
2018-06-05T05:03:52.325Z,71.04
2018-06-05T05:06:20.372Z,70.71
2018-06-05T05:08:48.394Z,69.77
2018-06-05T05:11:16.425Z,69.79
2018-06-05T05:13:44.506Z,70.71
2018-06-05T05:16:12.538Z,71.12
2018-06-05T05:18:40.577Z,71.05
2018-06-05T05:21:08.598Z,70.64
2018-06-05T05:23:36.557Z,69.84
2018-06-05T05:26:04.508Z,70.17
2018-06-05T05:28:32.465Z,69.99
2018-06-05T05:31:00.501Z,69.84
2018-06-05T05:33:28.444Z,69.94
2018-06-05T05:35:56.564Z,69.94
2018-06-05T05:38:24.573Z,70.49
2018-06-05T05:40:52.589Z,70.20
2018-06-05T05:43:21.743Z,70.19
2018-06-05T05:45:49.928Z,68.94
2018-06-05T05:48:18.450Z,68.22
2018-06-05T05:50:48.260Z,68.27
2018-06-05T05:53:16.526Z,68.82
2018-06-05T05:55:44.526Z,68.16
2018-06-05T05:58:12.831Z,67.74
2018-06-05T06:00:40.898Z,67.61
2018-06-05T06:03:09.006Z,66.71
2018-06-05T06:05:36.999Z,65.25
2018-06-05T06:08:05.079Z,64.70
2018-06-05T06:10:33.082Z,64.08
2018-06-05T06:13:01.404Z,63.09
2018-06-05T06:15:29.549Z,63.68
2018-06-05T06:17:57.524Z,63.10
2018-06-05T06:20:25.609Z,61.91
2018-06-05T06:22:53.506Z,61.94
2018-06-05T06:25:21.497Z,60.49
2018-06-05T06:27:49.480Z,60.70
2018-06-05T06:30:17.506Z,61.11
2018-06-05T06:32:45.429Z,59.61
2018-06-05T06:35:13.522Z,60.61
2018-06-05T06:37:41.517Z,61.26
2018-06-05T06:40:09.767Z,61.38
2018-06-05T06:42:37.920Z,61.02
2018-06-05T06:45:05.955Z,59.70
2018-06-05T06:47:33.893Z,60.98
2018-06-05T06:50:01.940Z,61.65
2018-06-05T06:52:29.945Z,62.61
2018-06-05T06:54:58.014Z,61.95
2018-06-05T06:57:25.999Z,61.24
2018-06-05T06:59:53.967Z,61.28
2018-06-05T07:02:22.135Z,61.67
2018-06-05T07:04:50.158Z,61.18
2018-06-05T07:07:18.276Z,61.74
2018-06-05T07:09:46.400Z,61.98
2018-06-05T07:12:14.369Z,60.92
2018-06-05T07:14:42.375Z,60.54
2018-06-05T07:17:10.413Z,59.29
2018-06-05T07:19:38.473Z,59.83
2018-06-05T07:22:06.457Z,59.30
2018-06-05T07:24:34.418Z,58.81
2018-06-05T07:27:02.476Z,58.69
2018-06-05T07:29:30.404Z,58.40
2018-06-05T07:31:58.632Z,57.07
2018-06-05T07:34:26.672Z,56.89
2018-06-05T07:36:54.856Z,56.84
2018-06-05T07:39:23.470Z,56.90
2018-06-05T07:41:51.441Z,57.92
2018-06-05T07:44:19.367Z,57.42
2018-06-05T07:46:47.347Z,57.49
2018-06-05T07:49:16.020Z,57.06
2018-06-05T07:51:43.926Z,55.30
2018-06-05T07:54:11.845Z,55.05
2018-06-05T07:56:39.870Z,55.47
2018-06-05T07:59:08.220Z,55.14
2018-06-05T08:01:36.091Z,54.44
2018-06-05T08:04:04.081Z,54.92
2018-06-05T08:06:32.130Z,55.38
2018-06-05T08:09:00.941Z,55.18
2018-06-05T08:11:28.898Z,55.54
2018-06-05T08:13:56.830Z,55.29
2018-06-05T08:16:24.826Z,53.94
2018-06-05T08:18:52.709Z,51.82
2018-06-05T08:21:20.726Z,51.68
2018-06-05T08:23:48.607Z,51.50
2018-06-05T08:26:16.889Z,50.72
2018-06-05T08:28:44.894Z,50.33
2018-06-05T08:31:12.825Z,50.32
2018-06-05T08:34:17.665Z,51.12
2018-06-05T08:36:51.852Z,49.52
2018-06-05T08:39:19.833Z,49.81
2018-06-05T08:41:48.639Z,49.45
2018-06-05T08:44:16.649Z,50.40
2018-06-05T08:46:44.573Z,50.56
2018-06-05T08:49:12.545Z,49.41
2018-06-05T08:51:40.461Z,49.37
2018-06-05T08:54:08.439Z,50.31
2018-06-05T08:56:36.490Z,49.78
2018-06-05T08:59:04.532Z,49.85
2018-06-05T09:01:32.485Z,49.86
2018-06-05T09:04:00.668Z,50.21
2018-06-05T09:06:28.717Z,49.37
2018-06-05T09:08:56.677Z,49.37
2018-06-05T09:11:24.622Z,49.87
2018-06-05T09:13:52.715Z,49.90
2018-06-05T09:16:20.689Z,48.13
2018-06-05T09:18:48.688Z,47.82
2018-06-05T09:21:16.602Z,48.09
2018-06-05T09:23:44.624Z,47.15
2018-06-05T09:26:12.501Z,46.47
2018-06-05T09:28:40.503Z,45.88
2018-06-05T09:31:08.777Z,47.30
2018-06-05T09:33:36.869Z,44.58
2018-06-05T09:36:04.769Z,44.42
2018-06-05T09:38:33.214Z,43.80
2018-06-05T09:41:01.586Z,45.24
2018-06-05T09:43:29.553Z,42.08
2018-06-05T09:45:57.676Z,42.49
2018-06-05T09:48:26.015Z,40.22
2018-06-05T09:50:54.593Z,40.93
2018-06-05T09:53:22.880Z,42.90
2018-06-05T09:55:51.480Z,40.92
2018-06-05T09:58:20.764Z,45.74
2018-06-05T10:00:50.802Z,39.60
2018-06-05T10:03:19.430Z,40.77
2018-06-05T10:05:47.742Z,40.98
2018-06-05T10:08:16.208Z,39.75
2018-06-05T10:10:44.697Z,40.41
2018-06-05T10:13:13.958Z,39.71
2018-06-05T10:15:42.477Z,39.25
2018-06-05T10:18:10.860Z,39.95
2018-06-05T10:20:39.344Z,44.92
2018-06-05T10:23:07.850Z,40.21
2018-06-05T10:25:36.301Z,44.12
2018-06-05T10:28:04.667Z,42.26
2018-06-05T10:30:33.235Z,44.17
2018-06-05T10:33:01.779Z,38.59
2018-06-05T10:35:29.938Z,38.08
2018-06-05T10:37:58.357Z,41.28
2018-06-05T10:40:26.934Z,37.64
2018-06-05T10:42:55.468Z,40.50
2018-06-05T10:45:23.841Z,44.39
2018-06-05T10:47:52.464Z,39.96
2018-06-05T10:50:20.935Z,39.63
2018-06-05T10:52:49.493Z,39.62
2018-06-05T10:55:18.007Z,38.65
2018-06-05T10:57:46.552Z,38.70
2018-06-05T11:00:15.232Z,38.11
2018-06-05T11:02:43.633Z,38.22
2018-06-05T11:05:12.013Z,38.13
2018-06-05T11:07:41.009Z,42.06
2018-06-05T11:10:09.477Z,38.43
2018-06-05T11:12:38.010Z,38.67
2018-06-05T11:15:06.446Z,41.98
2018-06-05T11:17:35.047Z,38.77
2018-06-05T11:20:03.612Z,39.98
2018-06-05T11:22:32.201Z,41.64
2018-06-05T11:25:00.810Z,39.87
2018-06-05T11:27:29.677Z,40.11
2018-06-05T11:29:58.073Z,39.47
2018-06-05T11:32:26.428Z,38.56
2018-06-05T11:34:54.815Z,43.81
2018-06-05T11:37:23.293Z,43.90
2018-06-05T11:39:51.779Z,43.67
2018-06-05T11:42:20.249Z,43.45
2018-06-05T11:44:48.689Z,44.85
2018-06-05T11:47:17.198Z,38.65
2018-06-05T11:49:45.672Z,37.09
2018-06-05T11:52:14.615Z,38.57
2018-06-05T11:54:42.967Z,44.56
2018-06-05T11:57:11.271Z,37.11
2018-06-05T11:59:39.889Z,39.79
2018-06-05T12:02:08.473Z,35.62
2018-06-05T12:04:36.797Z,38.81
2018-06-05T12:07:05.438Z,35.65
2018-06-05T12:09:34.065Z,35.91
2018-06-05T12:12:02.477Z,35.93
2018-06-05T12:14:30.826Z,35.80
2018-06-05T12:16:59.357Z,35.12
2018-06-05T12:19:27.890Z,36.25
2018-06-05T12:21:56.517Z,41.44
2018-06-05T12:24:25.173Z,34.51
2018-06-05T12:26:55.136Z,35.34
2018-06-05T12:29:23.657Z,35.86
2018-06-05T12:31:52.038Z,37.38
2018-06-05T12:34:20.712Z,38.16
2018-06-05T12:36:49.204Z,37.55
2018-06-05T12:39:17.134Z,41.54
2018-06-05T12:41:45.667Z,37.10
2018-06-05T12:44:14.024Z,37.34
2018-06-05T12:46:42.561Z,37.51
2018-06-05T12:49:10.857Z,38.74
2018-06-05T12:51:39.419Z,38.28
2018-06-05T12:54:07.405Z,38.09
2018-06-05T12:56:35.734Z,38.62
2018-06-05T12:59:04.339Z,38.75
2018-06-05T13:01:38.221Z,37.46
2018-06-05T13:04:12.818Z,37.73
2018-06-05T13:06:41.329Z,37.39
2018-06-05T13:09:09.703Z,37.71
2018-06-05T13:11:38.306Z,38.11
2018-06-05T13:14:06.706Z,37.91
2018-06-05T13:16:35.255Z,38.60
2018-06-05T13:19:29.021Z,39.55
2018-06-05T13:21:59.032Z,37.14
2018-06-05T13:24:27.314Z,36.87
2018-06-05T13:27:05.077Z,36.63
2018-06-05T13:29:33.973Z,37.04
2018-06-05T13:32:02.386Z,37.54
2018-06-05T13:34:31.110Z,37.49
2018-06-05T13:36:59.398Z,37.46
2018-06-05T13:39:27.659Z,37.83
2018-06-05T13:41:56.333Z,39.08
2018-06-05T13:44:24.371Z,38.15
2018-06-05T13:46:52.804Z,38.22
2018-06-05T13:49:21.536Z,37.60
2018-06-05T13:51:50.031Z,39.38
2018-06-05T13:54:18.483Z,37.47
2018-06-05T13:56:46.941Z,38.21
2018-06-05T13:59:15.649Z,38.16
2018-06-05T14:01:44.035Z,38.55
2018-06-05T14:04:12.612Z,39.00
2018-06-05T14:06:40.636Z,37.58
2018-06-05T14:09:09.038Z,38.20
2018-06-05T14:11:37.429Z,37.87
2018-06-05T14:14:06.077Z,39.05
2018-06-05T14:16:34.453Z,39.94
2018-06-05T14:19:02.883Z,39.11
2018-06-05T14:21:31.247Z,40.82
2018-06-05T14:23:59.854Z,39.31
2018-06-05T14:26:28.470Z,39.84
2018-06-05T14:28:57.078Z,38.94
2018-06-05T14:31:25.585Z,37.94
2018-06-05T14:33:53.981Z,38.18
2018-06-05T14:36:22.566Z,38.97
2018-06-05T14:38:51.062Z,37.94
2018-06-05T14:41:19.537Z,38.36
2018-06-05T14:43:47.909Z,37.84
2018-06-05T14:46:16.520Z,39.06
2018-06-05T14:48:44.875Z,39.22
2018-06-05T14:51:13.249Z,39.95
2018-06-05T14:53:42.046Z,40.11
2018-06-05T14:56:10.625Z,40.97
2018-06-05T14:58:40.873Z,40.92
2018-06-05T15:01:09.125Z,41.49
2018-06-05T15:03:37.502Z,42.44
2018-06-05T15:06:05.782Z,42.94
2018-06-05T15:08:34.425Z,43.92
2018-06-05T15:11:02.768Z,45.79
2018-06-05T15:17:00.246Z,43.78
2018-06-05T15:19:54.796Z,43.82
2018-06-05T15:22:44.350Z,43.99
2018-06-05T15:25:18.530Z,45.34
2018-06-05T15:27:46.486Z,46.87
2018-06-05T15:30:14.397Z,46.44
2018-06-05T15:32:42.354Z,45.40
2018-06-05T15:35:10.374Z,46.08
2018-06-05T15:37:41.464Z,47.57
2018-06-05T15:40:10.085Z,47.57
2018-06-05T15:42:38.424Z,46.04
2018-06-05T15:45:06.904Z,46.07
2018-06-05T15:47:35.499Z,46.34
2018-06-05T15:50:04.173Z,45.70
2018-06-05T15:52:32.358Z,46.15
2018-06-05T15:55:00.790Z,47.94
2018-06-05T15:57:29.027Z,45.30
2018-06-05T15:59:56.914Z,48.68
2018-06-05T16:02:25.474Z,45.72
2018-06-05T16:04:54.738Z,46.45
2018-06-05T16:07:23.147Z,45.87
2018-06-05T16:09:51.424Z,45.27
2018-06-05T16:12:19.906Z,47.13
2018-06-05T16:14:48.493Z,46.41
2018-06-05T16:17:17.002Z,47.94
2018-06-05T16:19:45.241Z,45.51
2018-06-05T16:22:13.519Z,46.50
2018-06-05T16:24:42.019Z,45.75
2018-06-05T16:27:10.588Z,48.90
2018-06-05T16:29:39.064Z,48.65
2018-06-05T16:32:07.440Z,45.11
2018-06-05T16:38:03.993Z,45.96
2018-06-05T16:40:32.105Z,46.08
2018-06-05T16:43:00.210Z,46.17
2018-06-05T16:45:28.182Z,49.42
2018-06-05T16:47:56.270Z,47.52
2018-06-05T16:50:24.250Z,47.23
2018-06-05T16:52:52.339Z,46.49
2018-06-05T16:55:20.316Z,46.87
2018-06-05T16:57:48.286Z,47.82
2018-06-05T17:00:16.257Z,46.80
2018-06-05T17:02:44.174Z,47.56
2018-06-05T17:05:12.104Z,48.10
2018-06-05T17:07:40.184Z,49.10
2018-06-05T17:10:08.231Z,49.86
2018-06-05T17:12:36.205Z,49.99
2018-06-05T17:15:04.151Z,50.15
2018-06-05T17:17:32.217Z,50.07
2018-06-05T17:20:00.302Z,49.59
2018-06-05T17:22:28.349Z,49.13
2018-06-05T17:24:56.291Z,49.48
2018-06-05T17:27:24.271Z,49.37
2018-06-05T17:29:52.405Z,50.20
2018-06-05T17:32:20.602Z,50.91
2018-06-05T17:34:48.662Z,50.98
2018-06-05T17:37:16.566Z,50.40
2018-06-05T17:39:44.487Z,49.96
2018-06-05T17:42:12.504Z,49.71
2018-06-05T17:44:40.557Z,50.04
2018-06-05T17:47:08.601Z,50.16
2018-06-05T17:49:37.093Z,50.65
2018-06-05T17:52:05.049Z,50.76
2018-06-05T17:54:33.121Z,50.89
2018-06-05T17:57:01.082Z,50.95
2018-06-05T17:59:29.002Z,51.26
2018-06-05T18:01:56.962Z,51.72
2018-06-05T18:04:24.857Z,52.21
2018-06-05T18:06:52.764Z,51.99
2018-06-05T18:09:20.702Z,52.69
2018-06-05T18:11:48.626Z,52.74
2018-06-05T18:14:16.570Z,53.11
2018-06-05T18:16:44.481Z,52.61
2018-06-05T18:19:13.224Z,53.78
2018-06-05T18:22:05.730Z,54.12
2018-06-05T18:24:35.690Z,54.06
2018-06-05T18:27:04.081Z,54.40
2018-06-05T18:29:32.965Z,54.31
2018-06-05T18:32:01.684Z,53.82
2018-06-05T18:34:30.687Z,53.95
2018-06-05T18:36:58.793Z,54.67
2018-06-05T18:39:26.782Z,54.33
2018-06-05T18:41:54.774Z,53.61
2018-06-05T18:44:22.848Z,54.04
2018-06-05T18:46:50.961Z,54.38
2018-06-05T18:49:53.489Z,54.66
2018-06-05T18:52:27.533Z,55.60
2018-06-05T18:54:55.438Z,55.51
2018-06-05T18:57:23.428Z,55.66
2018-06-05T18:59:51.385Z,55.03
2018-06-05T19:02:19.746Z,55.13
2018-06-05T19:04:47.967Z,54.77
2018-06-05T19:07:16.863Z,55.53
2018-06-05T19:09:46.757Z,55.33
2018-06-05T19:12:15.835Z,56.10
2018-06-05T19:14:44.514Z,56.41
2018-06-05T19:17:13.686Z,56.65
2018-06-05T19:19:41.973Z,56.87
2018-06-05T19:22:09.867Z,57.00
2018-06-05T19:24:37.732Z,57.26
2018-06-05T19:27:05.677Z,57.19
2018-06-05T19:29:33.586Z,57.75
2018-06-05T19:32:01.498Z,57.44
2018-06-05T19:34:29.434Z,57.96
2018-06-05T19:36:58.841Z,57.71
2018-06-05T19:39:27.623Z,58.03
2018-06-05T19:41:55.907Z,57.83
2018-06-05T19:44:23.993Z,57.91
2018-06-05T19:46:53.036Z,57.28
2018-06-05T19:49:20.994Z,57.90
2018-06-05T19:51:49.082Z,57.47
2018-06-05T19:54:17.166Z,57.53
2018-06-05T19:56:46.273Z,57.70
2018-06-05T19:59:14.413Z,58.16
2018-06-05T20:01:42.357Z,58.34
2018-06-05T20:04:10.416Z,58.25
2018-06-05T20:06:38.467Z,58.53
2018-06-05T20:09:08.137Z,58.89
2018-06-05T20:11:36.099Z,59.31
2018-06-05T20:14:04.056Z,59.48
2018-06-05T20:16:32.300Z,59.62
2018-06-05T20:19:00.568Z,59.52
2018-06-05T20:21:28.495Z,60.03
2018-06-05T20:23:56.531Z,60.27
2018-06-05T20:26:24.535Z,60.53
2018-06-05T20:28:52.404Z,60.52
2018-06-05T20:31:20.518Z,61.06
2018-06-05T20:33:48.499Z,60.98
2018-06-05T20:36:16.434Z,61.16
2018-06-05T20:38:44.706Z,60.77
2018-06-05T20:41:12.905Z,61.47
2018-06-05T20:43:41.249Z,61.81
2018-06-05T20:46:09.542Z,61.63
2018-06-05T20:48:37.472Z,62.01
2018-06-05T20:51:05.969Z,62.45
2018-06-05T20:53:33.853Z,62.37
2018-06-05T20:56:01.773Z,61.76
2018-06-05T20:58:29.810Z,61.29
2018-06-05T21:01:10.617Z,61.27
2018-06-05T21:03:44.828Z,61.85
2018-06-05T21:06:12.920Z,62.17
2018-06-05T21:08:41.002Z,62.99
2018-06-05T21:11:09.133Z,63.31
2018-06-05T21:13:37.168Z,62.66
2018-06-05T21:16:05.242Z,62.54
2018-06-05T21:18:33.220Z,62.91
2018-06-05T21:21:01.157Z,62.79
2018-06-05T21:23:29.110Z,65.75
2018-06-05T21:25:57.030Z,66.52
2018-06-05T21:28:25.942Z,66.14
2018-06-05T21:30:53.889Z,65.72
2018-06-05T21:33:22.261Z,65.01
2018-06-05T21:35:50.361Z,64.36
2018-06-05T21:38:18.285Z,64.11
2018-06-05T21:40:46.176Z,64.69
2018-06-05T21:43:14.064Z,66.12
2018-06-05T21:45:41.970Z,67.32
2018-06-05T21:51:39.746Z,65.58
2018-06-05T21:54:07.748Z,65.25
2018-06-05T21:56:35.801Z,65.68
2018-06-05T21:59:03.827Z,65.62
2018-06-05T22:01:31.849Z,65.49
2018-06-05T22:03:59.861Z,66.02
2018-06-05T22:06:27.911Z,65.30
2018-06-05T22:08:55.929Z,66.78
2018-06-05T22:11:23.997Z,67.07
2018-06-05T22:13:51.968Z,67.13
2018-06-05T22:16:19.921Z,66.87
2018-06-05T22:18:48.005Z,67.06
2018-06-05T22:21:15.915Z,66.28
2018-06-05T22:23:43.865Z,66.69
2018-06-05T22:26:11.850Z,65.42
2018-06-05T22:28:39.871Z,65.44
2018-06-05T22:31:07.889Z,65.81
2018-06-05T22:33:35.850Z,65.67
2018-06-05T22:36:03.793Z,65.60
2018-06-05T22:38:31.757Z,64.32
2018-06-05T22:40:59.776Z,63.73
2018-06-05T22:43:27.765Z,63.83
2018-06-05T22:45:55.729Z,63.34
2018-06-05T22:48:23.846Z,63.95
2018-06-05T22:50:51.829Z,63.45
2018-06-05T22:53:19.823Z,63.57
2018-06-05T22:55:47.808Z,64.10
2018-06-05T22:58:15.850Z,63.37
2018-06-05T23:00:43.766Z,63.40
2018-06-05T23:03:11.825Z,63.38
2018-06-05T23:05:39.810Z,63.64
2018-06-05T23:08:07.942Z,64.33
2018-06-05T23:10:36.012Z,64.98
2018-06-05T23:13:03.977Z,66.08
2018-06-05T23:15:31.913Z,66.03
2018-06-05T23:17:59.846Z,66.51
2018-06-05T23:20:27.792Z,66.65
2018-06-05T23:22:55.767Z,66.67
2018-06-05T23:25:23.712Z,65.54
2018-06-05T23:27:51.618Z,65.40
2018-06-05T23:30:19.576Z,64.78
2018-06-05T23:32:47.511Z,64.77
2018-06-05T23:35:15.445Z,66.15
2018-06-05T23:37:43.461Z,66.37
2018-06-05T23:40:11.370Z,67.30
2018-06-05T23:42:39.265Z,66.71
2018-06-05T23:45:07.234Z,67.81
2018-06-05T23:47:35.218Z,67.65
2018-06-05T23:50:03.353Z,67.83
2018-06-05T23:52:31.405Z,68.18
2018-06-05T23:54:59.442Z,68.12
2018-06-05T23:57:27.385Z,67.13
2018-06-05T23:59:55.394Z,67.78
